sensor_id;sensor_type;location;lat;lon;timestamp;P1;durP1;ratioP1;P2;durP2;ratioP2
64917;SDS011;52176;44.858;38.372;2023-04-25T13:28:10;0.57;;;0.20;;
64917;SDS011;52176;44.858;38.372;2023-04-25T13:30:36;0.40;;;0.20;;
64917;SDS011;52176;44.858;38.372;2023-04-25T13:33:02;0.50;;;0.20;;
64917;SDS011;52176;44.858;38.372;2023-04-25T13:35:29;0.50;;;0.20;;
64917;SDS011;52176;44.858;38.372;2023-04-25T13:37:56;0.50;;;0.20;;
64917;SDS011;52176;44.858;38.372;2023-04-25T20:10:22;2.67;;;1.55;;
64917;SDS011;52176;44.858;38.372;2023-04-25T20:12:48;3.55;;;1.80;;
64917;SDS011;52176;44.858;38.372;2023-04-25T20:15:15;2.90;;;1.60;;
64917;SDS011;52176;44.858;38.372;2023-04-25T20:17:42;3.53;;;1.50;;
64917;SDS011;52176;44.858;38.372;2023-04-25T20:20:08;2.95;;;1.45;;
64917;SDS011;52176;44.858;38.372;2023-04-25T20:22:35;3.03;;;1.40;;
64917;SDS011;52176;44.858;38.372;2023-04-25T20:25:03;3.30;;;1.38;;
64917;SDS011;52176;44.858;38.372;2023-04-25T20:27:31;3.22;;;1.50;;
64917;SDS011;52176;44.858;38.372;2023-04-25T20:29:57;3.40;;;1.40;;
64917;SDS011;52176;44.858;38.372;2023-04-25T20:32:27;3.78;;;1.52;;
64917;SDS011;52176;44.858;38.372;2023-04-25T21:04:09;1.30;;;0.70;;
64917;SDS011;52176;44.858;38.372;2023-04-25T21:06:35;1.20;;;0.70;;
64917;SDS011;52176;44.858;38.372;2023-04-25T21:09:01;1.50;;;0.80;;
64917;SDS011;52176;44.858;38.372;2023-04-25T21:18:46;1.77;;;0.90;;
64917;SDS011;52176;44.858;38.372;2023-04-25T21:21:12;2.20;;;1.00;;
64917;SDS011;52176;44.858;38.372;2023-04-25T21:23:38;2.47;;;1.13;;
64917;SDS011;52176;44.858;38.372;2023-04-25T21:26:04;2.30;;;1.20;;
64917;SDS011;52176;44.858;38.372;2023-04-25T21:28:30;2.40;;;1.20;;
64917;SDS011;52176;44.858;38.372;2023-04-25T21:30:57;2.28;;;1.23;;
64917;SDS011;52176;44.858;38.372;2023-04-25T21:33:23;2.25;;;1.20;;
64917;SDS011;52176;44.858;38.372;2023-04-25T21:35:50;2.97;;;1.20;;
64917;SDS011;52176;44.858;38.372;2023-04-25T21:38:16;2.15;;;1.10;;
64917;SDS011;52176;44.858;38.372;2023-04-25T21:40:42;1.92;;;0.98;;
64917;SDS011;52176;44.858;38.372;2023-04-25T21:43:08;1.92;;;0.98;;
64917;SDS011;52176;44.858;38.372;2023-04-25T21:45:34;1.80;;;0.90;;
64917;SDS011;52176;44.858;38.372;2023-04-25T21:48:00;2.17;;;0.90;;
64917;SDS011;52176;44.858;38.372;2023-04-25T21:50:26;1.92;;;0.95;;
64917;SDS011;52176;44.858;38.372;2023-04-25T21:52:52;2.75;;;1.00;;
64917;SDS011;52176;44.858;38.372;2023-04-25T21:55:56;1.88;;;0.95;;
64917;SDS011;52176;44.858;38.372;2023-04-25T21:58:22;1.85;;;0.98;;
64917;SDS011;52176;44.858;38.372;2023-04-25T22:00:48;2.13;;;0.80;;
64917;SDS011;52176;44.858;38.372;2023-04-25T22:03:14;1.75;;;0.80;;
64917;SDS011;52176;44.858;38.372;2023-04-25T22:05:40;1.52;;;0.70;;
64917;SDS011;52176;44.858;38.372;2023-04-25T22:08:06;1.58;;;0.80;;
64917;SDS011;52176;44.858;38.372;2023-04-25T22:10:32;1.20;;;0.73;;
64917;SDS011;52176;44.858;38.372;2023-04-25T22:12:59;1.35;;;0.75;;
64917;SDS011;52176;44.858;38.372;2023-04-25T22:15:25;1.48;;;0.70;;
64917;SDS011;52176;44.858;38.372;2023-04-25T22:17:51;1.27;;;0.70;;
64917;SDS011;52176;44.858;38.372;2023-04-25T22:20:21;1.80;;;0.70;;
64917;SDS011;52176;44.858;38.372;2023-04-25T22:23:08;1.20;;;0.50;;
64917;SDS011;52176;44.858;38.372;2023-04-25T22:25:53;1.38;;;0.50;;
64917;SDS011;52176;44.858;38.372;2023-04-25T22:28:19;1.20;;;0.52;;
64917;SDS011;52176;44.858;38.372;2023-04-25T22:30:45;1.30;;;0.50;;
64917;SDS011;52176;44.858;38.372;2023-04-25T22:33:11;1.02;;;0.50;;
64917;SDS011;52176;44.858;38.372;2023-04-25T22:36:14;0.80;;;0.50;;
64917;SDS011;52176;44.858;38.372;2023-04-25T22:38:42;0.80;;;0.50;;
64917;SDS011;52176;44.858;38.372;2023-04-25T22:41:08;1.15;;;0.50;;
64917;SDS011;52176;44.858;38.372;2023-04-25T22:43:53;0.90;;;0.50;;
64917;SDS011;52176;44.858;38.372;2023-04-25T22:46:19;0.90;;;0.50;;
64917;SDS011;52176;44.858;38.372;2023-04-25T22:48:46;1.00;;;0.50;;
64917;SDS011;52176;44.858;38.372;2023-04-25T22:51:13;0.63;;;0.45;;
64917;SDS011;52176;44.858;38.372;2023-04-25T22:53:43;0.80;;;0.47;;
64917;SDS011;52176;44.858;38.372;2023-04-25T22:56:10;0.80;;;0.50;;
64917;SDS011;52176;44.858;38.372;2023-04-25T22:58:37;0.98;;;0.40;;
64917;SDS011;52176;44.858;38.372;2023-04-25T23:01:08;0.77;;;0.40;;
64917;SDS011;52176;44.858;38.372;2023-04-25T23:03:35;0.80;;;0.40;;
64917;SDS011;52176;44.858;38.372;2023-04-25T23:06:01;0.90;;;0.40;;
64917;SDS011;52176;44.858;38.372;2023-04-25T23:08:28;0.70;;;0.40;;
64917;SDS011;52176;44.858;38.372;2023-04-25T23:10:54;0.60;;;0.40;;
64917;SDS011;52176;44.858;38.372;2023-04-25T23:13:20;0.90;;;0.43;;
64917;SDS011;52176;44.858;38.372;2023-04-25T23:15:46;0.60;;;0.40;;
64917;SDS011;52176;44.858;38.372;2023-04-25T23:18:13;0.80;;;0.40;;
64917;SDS011;52176;44.858;38.372;2023-04-25T23:20:39;0.90;;;0.40;;
64917;SDS011;52176;44.858;38.372;2023-04-25T23:23:04;0.70;;;0.40;;
64917;SDS011;52176;44.858;38.372;2023-04-25T23:25:30;0.50;;;0.30;;
64917;SDS011;52176;44.858;38.372;2023-04-25T23:27:57;0.57;;;0.28;;
64917;SDS011;52176;44.858;38.372;2023-04-25T23:30:23;0.95;;;0.30;;
64917;SDS011;52176;44.858;38.372;2023-04-25T23:32:50;0.45;;;0.30;;
64917;SDS011;52176;44.858;38.372;2023-04-25T23:35:17;0.40;;;0.30;;
64917;SDS011;52176;44.858;38.372;2023-04-25T23:37:42;0.60;;;0.30;;
64917;SDS011;52176;44.858;38.372;2023-04-25T23:40:09;0.63;;;0.40;;
64917;SDS011;52176;44.858;38.372;2023-04-25T23:42:36;0.50;;;0.30;;
64917;SDS011;52176;44.858;38.372;2023-04-25T23:45:04;0.50;;;0.30;;
64917;SDS011;52176;44.858;38.372;2023-04-25T23:47:31;0.63;;;0.35;;
64917;SDS011;52176;44.858;38.372;2023-04-25T23:49:57;0.90;;;0.30;;
64917;SDS011;52176;44.858;38.372;2023-04-25T23:52:23;1.00;;;0.40;;
64917;SDS011;52176;44.858;38.372;2023-04-25T23:54:50;0.60;;;0.40;;
64917;SDS011;52176;44.858;38.372;2023-04-25T23:57:16;0.60;;;0.32;;
64917;SDS011;52176;44.858;38.372;2023-04-25T23:59:42;0.47;;;0.30;;
